Kingston, Washington
Current Conditions -  °F | °C
As of 3:53 AM on Monday 24 Nov 2014 (Local Time) from KPAE Reporting Station
Overcast Overcast  
Wind Chill: 44°   Ceiling: 11000
Heat Index: 44°   Visibility: 10mi
Dew Point: 39°   Wind: 3mph
Humidity: 82%   Direction: NA
Pressure: 30.35"   Gusts: NA
Location:  47.8°N, 122.5°W
Report Text: KPAE 241153Z AUTO VRB03KT 10SM OVC110 07/04 A3035 RMK AO2 SLP280 70023 T00670039 10078 20056 56002 $
Loading
Personal Weather Stations






























Interactive Weather Map New forecast layout! Learn more

10-Day Weather Forecast

Advertisements
Track Severe Weather on mobile